Outer Limits — WXC4854 — position and weather

sailwx.info

Track history (hours):
 
Tides and Currents Weather Stations Pressure Air Temp Water Temp Dewpoint Dewpoint Depression Visibility Wind Speed Wind Dir Waves Ship Positions

Outer Limits

Last reported at 2017-Dec-15 06:32 UTC. Time now 2017-Dec-18 16:51 UTC.
Position N 32°46' W 117°15'.

Type: Other ship. MMSI: 367169560.

Date/timePositionNaut miles runAvg speedWind from/ knotsBaromVisibWave heightAir tempDewpointWater temp
2017-Dec-15 06:32N 32°46' W 117°15'0 6.8
2017-Dec-15 06:29N 32°46' W 117°15'510.3
2017-Dec-15 06:00N 32°45' W 117°21'510.7
2017-Dec-15 05:30N 32°45' W 117°27'2 4.4
2017-Dec-15 05:00N 32°45' W 117°30'0 0.1
2017-Dec-15 04:30N 32°45' W 117°30'0 0.3
2017-Dec-15 04:00N 32°45' W 117°30'8 5.0
2017-Dec-15 02:30N 32°44' W 117°39'15 9.8
2017-Dec-15 01:00N 32°41' W 117°56'7 9.6
2017-Dec-15 00:16N 32°39' W 118°04'23 1.2
2017-Dec-14 04:46N 32°29' W 118°28'5 8.2
2017-Dec-14 04:08N 32°29' W 118°22'1 7.9
2017-Dec-14 03:59N 32°30' W 118°21'9 8.2
2017-Dec-14 02:55N 32°30' W 118°10'3 8.1
2017-Dec-14 02:29N 32°31' W 118°06'3 1.9
2017-Dec-14 01:08N 32°31' W 118°03'0 0.4
2017-Dec-14 00:50N 32°31' W 118°03'0 1.3
2017-Dec-14 00:30N 32°31' W 118°03'3 2.3
2017-Dec-13 23:08N 32°30' W 117°60'1 4.5
2017-Dec-13 22:55N 32°30' W 117°59'2 3.8
2017-Dec-13 22:30N 32°32' W 117°59'2 4.2
2017-Dec-13 22:00N 32°32' W 118°02'2 3.9
2017-Dec-13 21:30N 32°31' W 118°03'2 3.7
2017-Dec-13 21:00N 32°32' W 118°05'2 0.9
2017-Dec-13 19:08N 32°31' W 118°03'2 1.2
2017-Dec-13 17:10N 32°29' W 118°01'1 4.9
2017-Dec-13 17:00N 32°30' W 118°00'2 3.8
2017-Dec-13 16:28N 32°32' W 118°01'2 4.0
2017-Dec-13 15:56N 32°32' W 118°03'1 1.2
2017-Dec-13 14:58N 32°31' W 118°03'23 5.3
2017-Dec-13 10:34N 32°39' W 117°37'1 7.0
2017-Dec-13 10:29N 32°39' W 117°36'3 6.9
2017-Dec-13 10:00N 32°40' W 117°33'3 6.8
2017-Dec-13 09:30N 32°41' W 117°29'3 7.0
2017-Dec-13 09:00N 32°42' W 117°25'9 2.2
2017-Dec-13 04:46N 32°46' W 117°15'2 7.6
2017-Dec-13 04:30N 32°45' W 117°17'1 2.0
2017-Dec-13 04:00N 32°45' W 117°16'1 0.3
2017-Dec-13 00:31N 32°46' W 117°15'0 5.2
2017-Dec-13 00:28N 32°46' W 117°15'5 9.9
2017-Dec-13 00:00N 32°45' W 117°20'510.2
2017-Dec-12 23:30N 32°45' W 117°26'4 7.3
2017-Dec-12 22:59N 32°45' W 117°31'1 1.0
2017-Dec-12 22:27N 32°45' W 117°31'0 0.2
2017-Dec-12 22:00N 32°45' W 117°31'0 0.6
2017-Dec-12 21:30N 32°45' W 117°30'1 1.4
2017-Dec-12 21:00N 32°44' W 117°31'3 6.5
2017-Dec-12 20:30N 32°41' W 117°30'3 4.7
2017-Dec-12 19:49N 32°38' W 117°28'0 0.7
2017-Dec-12 19:18N 32°39' W 117°28'0 0.4
2017-Dec-12 18:48N 32°39' W 117°28'0 0.5
2017-Dec-12 18:22N 32°39' W 117°28'0 0.0
2017-Dec-12 17:54N 32°39' W 117°28'0 0.3
2017-Dec-12 17:24N 32°39' W 117°28'1 0.6
2017-Dec-12 16:14N 32°38' W 117°28'0 0.4
2017-Dec-12 16:00N 32°38' W 117°28'  
Track history (hours):
 
Tides and Currents Weather Stations Pressure Air Temp Water Temp Dewpoint Dewpoint Depression Visibility Wind Speed Wind Dir Waves Ship Positions

Outer Limits

Last reported at 2017-Dec-15 06:32 UTC. Time now 2017-Dec-18 16:51 UTC.
Position N 32°46' W 117°15'.

Type: Other ship. MMSI: 367169560.

Date/timePositionNaut miles runAvg speedWind from/ knotsBaromVisibWave heightAir tempDewpointWater temp
2017-Dec-15 06:32N 32°46' W 117°15'0 6.8
2017-Dec-15 06:29N 32°46' W 117°15'510.3
2017-Dec-15 06:00N 32°45' W 117°21'510.7
2017-Dec-15 05:30N 32°45' W 117°27'2 4.4
2017-Dec-15 05:00N 32°45' W 117°30'0 0.1
2017-Dec-15 04:30N 32°45' W 117°30'0 0.3
2017-Dec-15 04:00N 32°45' W 117°30'8 5.0
2017-Dec-15 02:30N 32°44' W 117°39'15 9.8
2017-Dec-15 01:00N 32°41' W 117°56'7 9.6
2017-Dec-15 00:16N 32°39' W 118°04'23 1.2
2017-Dec-14 04:46N 32°29' W 118°28'5 8.2
2017-Dec-14 04:08N 32°29' W 118°22'1 7.9
2017-Dec-14 03:59N 32°30' W 118°21'9 8.2
2017-Dec-14 02:55N 32°30' W 118°10'3 8.1
2017-Dec-14 02:29N 32°31' W 118°06'3 1.9
2017-Dec-14 01:08N 32°31' W 118°03'0 0.4
2017-Dec-14 00:50N 32°31' W 118°03'0 1.3
2017-Dec-14 00:30N 32°31' W 118°03'3 2.3
2017-Dec-13 23:08N 32°30' W 117°60'1 4.5
2017-Dec-13 22:55N 32°30' W 117°59'2 3.8
2017-Dec-13 22:30N 32°32' W 117°59'2 4.2
2017-Dec-13 22:00N 32°32' W 118°02'2 3.9
2017-Dec-13 21:30N 32°31' W 118°03'2 3.7
2017-Dec-13 21:00N 32°32' W 118°05'2 0.9
2017-Dec-13 19:08N 32°31' W 118°03'2 1.2
2017-Dec-13 17:10N 32°29' W 118°01'1 4.9
2017-Dec-13 17:00N 32°30' W 118°00'2 3.8
2017-Dec-13 16:28N 32°32' W 118°01'2 4.0
2017-Dec-13 15:56N 32°32' W 118°03'1 1.2
2017-Dec-13 14:58N 32°31' W 118°03'23 5.3
2017-Dec-13 10:34N 32°39' W 117°37'1 7.0
2017-Dec-13 10:29N 32°39' W 117°36'3 6.9
2017-Dec-13 10:00N 32°40' W 117°33'3 6.8
2017-Dec-13 09:30N 32°41' W 117°29'3 7.0
2017-Dec-13 09:00N 32°42' W 117°25'9 2.2
2017-Dec-13 04:46N 32°46' W 117°15'2 7.6
2017-Dec-13 04:30N 32°45' W 117°17'1 2.0
2017-Dec-13 04:00N 32°45' W 117°16'1 0.3
2017-Dec-13 00:31N 32°46' W 117°15'0 5.2
2017-Dec-13 00:28N 32°46' W 117°15'5 9.9
2017-Dec-13 00:00N 32°45' W 117°20'510.2
2017-Dec-12 23:30N 32°45' W 117°26'4 7.3
2017-Dec-12 22:59N 32°45' W 117°31'1 1.0
2017-Dec-12 22:27N 32°45' W 117°31'0 0.2
2017-Dec-12 22:00N 32°45' W 117°31'0 0.6
2017-Dec-12 21:30N 32°45' W 117°30'1 1.4
2017-Dec-12 21:00N 32°44' W 117°31'3 6.5
2017-Dec-12 20:30N 32°41' W 117°30'3 4.7
2017-Dec-12 19:49N 32°38' W 117°28'0 0.7
2017-Dec-12 19:18N 32°39' W 117°28'0 0.4
2017-Dec-12 18:48N 32°39' W 117°28'0 0.5
2017-Dec-12 18:22N 32°39' W 117°28'0 0.0
2017-Dec-12 17:54N 32°39' W 117°28'0 0.3
2017-Dec-12 17:24N 32°39' W 117°28'1 0.6
2017-Dec-12 16:14N 32°38' W 117°28'0 0.4
2017-Dec-12 16:00N 32°38' W 117°28'  

Dump ship's entire track history